Carrier Princess — CZ3582 — position and weather

sailwx.info

Track history (hours):
 
Tides and Currents Weather Stations Pressure Air Temp Water Temp Dewpoint Dewpoint Depression Visibility Wind Speed Wind Dir Waves Ship Positions

Carrier Princess

Last reported at 2017-Feb-24 07:33 UTC. Time now 2017-Feb-24 08:20 UTC.
Position N 49°09' W 123°02'.

Length 112 m; draft 3 m.

Type: Cargo ship. MMSI: 316003656.

Date/timePositionNaut miles runAvg speedWind from/ knotsBaromVisibWave heightAir tempDewpointWater temp
2017-Feb-24 07:33N 49°09' W 123°02'10 9.7
2017-Feb-24 06:34N 49°07' W 123°17'1212.4
2017-Feb-24 05:33N 48°54' W 123°18'1211.9
2017-Feb-24 04:34N 48°43' W 123°25'2 2.2
2017-Feb-24 03:33N 48°41' W 123°24'0 0.0
2017-Feb-24 02:33N 48°41' W 123°24'1110.7
2017-Feb-24 01:33N 48°52' W 123°19'1313.6
2017-Feb-24 00:33N 49°05' W 123°21'1312.5
2017-Feb-23 23:33N 49°09' W 123°02'0 0.0
2017-Feb-23 22:33N 49°09' W 123°02'5 4.7
2017-Feb-23 21:34N 49°06' W 123°08'1010.3
2017-Feb-23 20:33N 49°07' W 123°24'1313.1
2017-Feb-23 19:33N 49°12' W 123°43'9 8.6
2017-Feb-23 18:33N 49°10' W 123°56'0 0.0
2017-Feb-23 17:33N 49°10' W 123°56'0 0.0
2017-Feb-23 16:33N 49°10' W 123°56'0 0.0
2017-Feb-23 15:34N 49°10' W 123°56'0 0.0
2017-Feb-23 14:26N 49°10' W 123°56'0 0.0
2017-Feb-23 13:32N 49°10' W 123°56'0 0.0
2017-Feb-23 12:20N 49°10' W 123°56'5 6.0
2017-Feb-23 11:33N 49°13' W 123°50'1414.0
2017-Feb-23 10:33N 49°09' W 123°30'1313.3
2017-Feb-23 09:34N 49°07' W 123°10'5 5.4
2017-Feb-23 08:33N 49°09' W 123°02'0 0.0
2017-Feb-23 07:33N 49°09' W 123°02'1010.0
2017-Feb-23 06:33N 49°07' W 123°17'1312.8
2017-Feb-23 05:33N 48°54' W 123°18'1212.2
2017-Feb-23 04:34N 48°42' W 123°22'2 2.0
2017-Feb-23 03:33N 48°41' W 123°24'0 0.0
2017-Feb-23 02:33N 48°41' W 123°24'1110.6
2017-Feb-23 01:32N 48°52' W 123°19'1414.3
2017-Feb-23 00:34N 49°05' W 123°19'1211.5
2017-Feb-22 23:33N 49°09' W 123°02'0 0.0
2017-Feb-22 22:33N 49°09' W 123°02'5 5.2
2017-Feb-22 21:33N 49°07' W 123°09'1110.9
2017-Feb-22 20:33N 49°08' W 123°26'1212.0
2017-Feb-22 19:32N 49°12' W 123°43'8 7.7
2017-Feb-22 18:28N 49°10' W 123°56'0 0.0
2017-Feb-22 17:28N 49°10' W 123°56'0 0.0
2017-Feb-22 16:17N 49°10' W 123°56'0 0.0
2017-Feb-22 14:32N 49°10' W 123°56'0 0.0
2017-Feb-22 13:06N 49°10' W 123°56'0 0.0
2017-Feb-22 12:23N 49°10' W 123°56'6 7.4
2017-Feb-22 11:32N 49°13' W 123°48'1414.1
2017-Feb-22 10:33N 49°09' W 123°28'1312.8
2017-Feb-22 09:33N 49°06' W 123°08'5 4.6
2017-Feb-22 08:33N 49°09' W 123°02'0 0.0
2017-Feb-22 07:34N 49°09' W 123°02'9 8.8
2017-Feb-22 06:34N 49°07' W 123°15'1111.2
2017-Feb-22 05:33N 48°56' W 123°18'1211.8
2017-Feb-22 04:34N 48°45' W 123°21'4 4.1
2017-Feb-22 03:34N 48°41' W 123°24'0 0.0
2017-Feb-22 02:33N 48°41' W 123°24'1110.9
2017-Feb-22 01:34N 48°52' W 123°20'1413.8
2017-Feb-22 00:34N 49°06' W 123°20'1211.8
2017-Feb-21 23:33N 49°09' W 123°02'0 0.0
2017-Feb-21 22:33N 49°09' W 123°02'5 5.0
2017-Feb-21 21:34N 49°06' W 123°09'1111.2
2017-Feb-21 20:33N 49°08' W 123°26'1212.5
2017-Feb-21 19:33N 49°12' W 123°44'8 7.8
2017-Feb-21 18:32N 49°10' W 123°56'0 0.0
2017-Feb-21 17:29N 49°10' W 123°56'0 0.0
2017-Feb-21 16:30N 49°10' W 123°56'0 0.0
2017-Feb-21 15:30N 49°10' W 123°56'0 0.0
2017-Feb-21 14:33N 49°10' W 123°56'0 0.0
2017-Feb-21 13:31N 49°10' W 123°56'0 0.0
2017-Feb-21 12:28N 49°10' W 123°56'6 6.7
2017-Feb-21 11:33N 49°13' W 123°48'1313.4
2017-Feb-21 10:33N 49°09' W 123°29'1212.3
2017-Feb-21 09:33N 49°07' W 123°10'6 5.6
2017-Feb-21 08:33N 49°09' W 123°02'0 0.0
2017-Feb-21 07:33N 49°09' W 123°02'1010.3
2017-Feb-21 06:33N 49°07' W 123°18'1313.0
2017-Feb-21 05:33N 48°54' W 123°18'1212.1
2017-Feb-21 04:33N 48°42' W 123°24'1 0.9
2017-Feb-21 03:33N 48°41' W 123°24'0 0.0
2017-Feb-21 02:33N 48°41' W 123°24'1010.1
2017-Feb-21 01:33N 48°51' W 123°21'1313.5
2017-Feb-21 00:33N 49°05' W 123°19'1211.8
2017-Feb-20 23:33N 49°09' W 123°02'0 0.0
2017-Feb-20 22:33N 49°09' W 123°02'0 0.0
2017-Feb-20 21:33N 49°09' W 123°02'0 0.0
2017-Feb-20 20:33N 49°09' W 123°02'0 0.0
2017-Feb-20 19:33N 49°09' W 123°02'0 0.0
2017-Feb-20 18:33N 49°09' W 123°02'0 0.0
2017-Feb-20 17:33N 49°09' W 123°02'0 0.0
2017-Feb-20 16:33N 49°09' W 123°02'0 0.0
2017-Feb-20 15:33N 49°09' W 123°02'0 0.0
2017-Feb-20 14:33N 49°09' W 123°02'0 0.0
2017-Feb-20 13:33N 49°09' W 123°02'0 0.0
2017-Feb-20 12:33N 49°09' W 123°02'0 0.0
2017-Feb-20 11:33N 49°09' W 123°02'0 0.0
2017-Feb-20 10:33N 49°09' W 123°02'0 0.0
2017-Feb-20 09:33N 49°09' W 123°02'0 0.0
2017-Feb-20 08:33N 49°09' W 123°02'0 0.0
2017-Feb-20 07:33N 49°09' W 123°02'0 0.0
2017-Feb-20 06:33N 49°09' W 123°02'0 0.0
2017-Feb-20 05:33N 49°09' W 123°02'0 0.0
2017-Feb-20 04:33N 49°09' W 123°02'0 0.0
2017-Feb-20 03:33N 49°09' W 123°02'0 0.0
2017-Feb-20 02:33N 49°09' W 123°02'0 0.0
2017-Feb-20 01:33N 49°09' W 123°02'0 0.0
2017-Feb-20 00:33N 49°09' W 123°02'0 0.0
2017-Feb-19 23:33N 49°09' W 123°02'0 0.0
2017-Feb-19 22:33N 49°09' W 123°02'0 0.0
2017-Feb-19 21:33N 49°09' W 123°02'0 0.0
2017-Feb-19 20:33N 49°09' W 123°02'0 0.0
2017-Feb-19 19:33N 49°09' W 123°02'0 0.0
2017-Feb-19 18:33N 49°09' W 123°02'0 0.0
2017-Feb-19 17:33N 49°09' W 123°02'0 0.0
2017-Feb-19 16:33N 49°09' W 123°02'1 0.8
2017-Feb-19 15:33N 49°08' W 123°03'1010.3
2017-Feb-19 14:33N 49°06' W 123°18'1110.9
2017-Feb-19 13:33N 49°09' W 123°34'1110.8
2017-Feb-19 12:33N 49°13' W 123°50'5 2.2
2017-Feb-19 10:26N 49°10' W 123°56'5 5.7
2017-Feb-19 09:31N 49°13' W 123°50'1111.5
2017-Feb-19 08:33N 49°10' W 123°33'1111.0
2017-Feb-19 07:33N 49°06' W 123°18'1010.2
2017-Feb-19 06:33N 49°09' W 123°02'0 0.2
2017-Feb-19 05:33N 49°09' W 123°02'0 0.0
2017-Feb-19 04:33N 49°09' W 123°02'0 0.0
2017-Feb-19 03:33N 49°09' W 123°02'0 0.0
2017-Feb-19 02:33N 49°09' W 123°02'0 0.0
2017-Feb-19 01:33N 49°09' W 123°02'0 0.0
2017-Feb-19 00:33N 49°09' W 123°02'0 0.0
2017-Feb-18 23:33N 49°09' W 123°02'0 0.0
2017-Feb-18 22:33N 49°09' W 123°02'0 0.0
2017-Feb-18 21:33N 49°09' W 123°02'0 0.0
2017-Feb-18 20:33N 49°09' W 123°02'0 0.0
2017-Feb-18 19:33N 49°09' W 123°02'0 0.0
2017-Feb-18 18:33N 49°09' W 123°02'0 0.0
2017-Feb-18 17:34N 49°09' W 123°02'0 0.0
2017-Feb-18 16:33N 49°09' W 123°02'0 0.0
2017-Feb-18 15:33N 49°09' W 123°02'8 7.8
2017-Feb-18 14:33N 49°08' W 123°14'1212.4
2017-Feb-18 13:33N 48°56' W 123°18'1312.6
2017-Feb-18 12:33N 48°44' W 123°24'2 2.3
2017-Feb-18 11:34N 48°41' W 123°24'0 0.0
2017-Feb-18 10:34N 48°41' W 123°24'1211.9
2017-Feb-18 09:33N 48°53' W 123°18'1514.5
2017-Feb-18 08:34N 49°07' W 123°16'9 9.4
2017-Feb-18 07:33N 49°09' W 123°02'0 0.0
2017-Feb-18 06:33N 49°09' W 123°02'10 9.9
2017-Feb-18 05:33N 49°07' W 123°17'1313.3
2017-Feb-18 04:33N 49°10' W 123°37'1212.3
2017-Feb-18 03:32N 49°10' W 123°56'0 0.1
2017-Feb-18 02:34N 49°10' W 123°56'2 2.1
2017-Feb-18 01:25N 49°12' W 123°53'1112.8
2017-Feb-18 00:33N 49°10' W 123°36'1313.0
2017-Feb-17 23:34N 49°07' W 123°17'1010.1
2017-Feb-17 22:33N 49°09' W 123°02'0 0.0
2017-Feb-17 21:33N 49°09' W 123°02'0 0.0
2017-Feb-17 20:34N 49°09' W 123°02'0 0.0
2017-Feb-17 19:33N 49°09' W 123°02'0 0.0
2017-Feb-17 18:34N 49°09' W 123°02'0 0.0
2017-Feb-17 17:33N 49°09' W 123°02'0 0.0
2017-Feb-17 16:33N 49°09' W 123°02'0 0.0
2017-Feb-17 15:33N 49°09' W 123°02'8 7.9
2017-Feb-17 14:33N 49°08' W 123°14'1312.9
2017-Feb-17 13:33N 48°55' W 123°18'1313.3
2017-Feb-17 12:34N 48°42' W 123°24'1 1.1
2017-Feb-17 11:33N 48°41' W 123°24'0 0.2
2017-Feb-17 10:33N 48°41' W 123°24'1111.1
2017-Feb-17 09:33N 48°52' W 123°19'1414.1
2017-Feb-17 08:33N 49°06' W 123°19'1111.2
2017-Feb-17 07:33N 49°09' W 123°02'0 0.0
2017-Feb-17 06:33N 49°09' W 123°02'10 9.9
2017-Feb-17 05:33N 49°07' W 123°17'1413.9
2017-Feb-17 04:33N 49°10' W 123°38'11 3.7
2017-Feb-17 01:33N 49°10' W 123°54'1211.8
2017-Feb-17 00:32N 49°11' W 123°36'1313.1
2017-Feb-16 23:34N 49°06' W 123°18'1010.4
2017-Feb-16 22:33N 49°09' W 123°02'0 0.0
2017-Feb-16 21:33N 49°09' W 123°02'0 0.0
2017-Feb-16 20:33N 49°09' W 123°02'0 0.0
2017-Feb-16 19:33N 49°09' W 123°02'0 0.0
2017-Feb-16 18:33N 49°09' W 123°02'0 0.0
2017-Feb-16 17:33N 49°09' W 123°02'0 0.0
2017-Feb-16 16:33N 49°09' W 123°02'0 0.0
2017-Feb-16 15:33N 49°09' W 123°02'6 6.0
2017-Feb-16 14:33N 49°07' W 123°11'1111.0
2017-Feb-16 13:33N 48°57' W 123°19'1413.8
2017-Feb-16 12:34N 48°44' W 123°24'3 2.5
2017-Feb-16 11:33N 48°41' W 123°24'1 0.8
2017-Feb-16 10:33N 48°42' W 123°23'1211.9
2017-Feb-16 09:33N 48°53' W 123°18'1313.0
2017-Feb-16 08:34N 49°06' W 123°19'1111.4
2017-Feb-16 07:33N 49°09' W 123°02'0 0.0
2017-Feb-16 06:33N 49°09' W 123°02'9 8.7
2017-Feb-16 05:33N 49°07' W 123°15'1313.1
2017-Feb-16 04:33N 49°10' W 123°35'1212.5
2017-Feb-16 03:34N 49°11' W 123°54'1 1.5
2017-Feb-16 02:33N 49°10' W 123°56'0 0.1
2017-Feb-16 01:33N 49°10' W 123°56'1111.4
2017-Feb-16 00:34N 49°11' W 123°38'1414.1
2017-Feb-15 23:33N 49°06' W 123°18'1110.8
2017-Feb-15 22:33N 49°09' W 123°02'0 0.0
2017-Feb-15 21:33N 49°09' W 123°02'0 0.0
2017-Feb-15 20:33N 49°09' W 123°02'0 0.0
2017-Feb-15 19:33N 49°09' W 123°02'0 0.0
2017-Feb-15 18:34N 49°09' W 123°02'0 0.0
2017-Feb-15 17:33N 49°09' W 123°02'0 0.0
2017-Feb-15 16:33N 49°09' W 123°02'0 0.0
2017-Feb-15 15:34N 49°09' W 123°02'6 5.8
2017-Feb-15 14:33N 49°07' W 123°10'1111.4
2017-Feb-15 13:33N 48°57' W 123°19'1413.8
2017-Feb-15 12:33N 48°43' W 123°24'2 2.0
2017-Feb-15 11:32N 48°41' W 123°24'1 1.0
2017-Feb-15 10:34N 48°42' W 123°23'1212.3
2017-Feb-15 09:34N 48°53' W 123°18'1414.0
2017-Feb-15 08:33N 49°07' W 123°15'9 8.8
2017-Feb-15 07:33N 49°09' W 123°02'0 0.0
2017-Feb-15 06:33N 49°09' W 123°02'1010.4
2017-Feb-15 05:33N 49°06' W 123°18'1414.0
2017-Feb-15 04:33N 49°11' W 123°38'1111.5
2017-Feb-15 03:33N 49°10' W 123°56'0 0.1
2017-Feb-15 02:33N 49°10' W 123°56'1 1.4
2017-Feb-15 01:33N 49°11' W 123°54'1211.8
2017-Feb-15 00:33N 49°11' W 123°36'1313.1
2017-Feb-14 23:34N 49°07' W 123°17'10 9.8
2017-Feb-14 22:33N 49°09' W 123°02'0 0.0
2017-Feb-14 21:33N 49°09' W 123°02'0 0.0
2017-Feb-14 20:33N 49°09' W 123°02'0 0.0
2017-Feb-14 19:33N 49°09' W 123°02'0 0.0
2017-Feb-14 18:33N 49°09' W 123°02'0 0.0
2017-Feb-14 17:33N 49°09' W 123°02'0 0.0
2017-Feb-14 16:33N 49°09' W 123°02'0 0.0
2017-Feb-14 15:33N 49°09' W 123°02'0 0.0
2017-Feb-14 14:33N 49°09' W 123°02'0 0.0
2017-Feb-14 13:33N 49°09' W 123°02'0 0.0
2017-Feb-14 12:33N 49°09' W 123°02'0 0.0
2017-Feb-14 11:33N 49°09' W 123°02'0 0.0
2017-Feb-14 10:33N 49°09' W 123°02'0 0.0
2017-Feb-14 09:33N 49°09' W 123°02'0 0.0
2017-Feb-14 08:33N 49°09' W 123°02'0 0.0
2017-Feb-14 07:34N 49°09' W 123°02'  
Track history (hours):
 
Tides and Currents Weather Stations Pressure Air Temp Water Temp Dewpoint Dewpoint Depression Visibility Wind Speed Wind Dir Waves Ship Positions

Carrier Princess

Last reported at 2017-Feb-24 07:33 UTC. Time now 2017-Feb-24 08:20 UTC.
Position N 49°09' W 123°02'.

Length 112 m; draft 3 m.

Type: Cargo ship. MMSI: 316003656.

Date/timePositionNaut miles runAvg speedWind from/ knotsBaromVisibWave heightAir tempDewpointWater temp
2017-Feb-24 07:33N 49°09' W 123°02'10 9.7
2017-Feb-24 06:34N 49°07' W 123°17'1212.4
2017-Feb-24 05:33N 48°54' W 123°18'1211.9
2017-Feb-24 04:34N 48°43' W 123°25'2 2.2
2017-Feb-24 03:33N 48°41' W 123°24'0 0.0
2017-Feb-24 02:33N 48°41' W 123°24'1110.7
2017-Feb-24 01:33N 48°52' W 123°19'1313.6
2017-Feb-24 00:33N 49°05' W 123°21'1312.5
2017-Feb-23 23:33N 49°09' W 123°02'0 0.0
2017-Feb-23 22:33N 49°09' W 123°02'5 4.7
2017-Feb-23 21:34N 49°06' W 123°08'1010.3
2017-Feb-23 20:33N 49°07' W 123°24'1313.1
2017-Feb-23 19:33N 49°12' W 123°43'9 8.6
2017-Feb-23 18:33N 49°10' W 123°56'0 0.0
2017-Feb-23 17:33N 49°10' W 123°56'0 0.0
2017-Feb-23 16:33N 49°10' W 123°56'0 0.0
2017-Feb-23 15:34N 49°10' W 123°56'0 0.0
2017-Feb-23 14:26N 49°10' W 123°56'0 0.0
2017-Feb-23 13:32N 49°10' W 123°56'0 0.0
2017-Feb-23 12:20N 49°10' W 123°56'5 6.0
2017-Feb-23 11:33N 49°13' W 123°50'1414.0
2017-Feb-23 10:33N 49°09' W 123°30'1313.3
2017-Feb-23 09:34N 49°07' W 123°10'5 5.4
2017-Feb-23 08:33N 49°09' W 123°02'0 0.0
2017-Feb-23 07:33N 49°09' W 123°02'1010.0
2017-Feb-23 06:33N 49°07' W 123°17'1312.8
2017-Feb-23 05:33N 48°54' W 123°18'1212.2
2017-Feb-23 04:34N 48°42' W 123°22'2 2.0
2017-Feb-23 03:33N 48°41' W 123°24'0 0.0
2017-Feb-23 02:33N 48°41' W 123°24'1110.6
2017-Feb-23 01:32N 48°52' W 123°19'1414.3
2017-Feb-23 00:34N 49°05' W 123°19'1211.5
2017-Feb-22 23:33N 49°09' W 123°02'0 0.0
2017-Feb-22 22:33N 49°09' W 123°02'5 5.2
2017-Feb-22 21:33N 49°07' W 123°09'1110.9
2017-Feb-22 20:33N 49°08' W 123°26'1212.0
2017-Feb-22 19:32N 49°12' W 123°43'8 7.7
2017-Feb-22 18:28N 49°10' W 123°56'0 0.0
2017-Feb-22 17:28N 49°10' W 123°56'0 0.0
2017-Feb-22 16:17N 49°10' W 123°56'0 0.0
2017-Feb-22 14:32N 49°10' W 123°56'0 0.0
2017-Feb-22 13:06N 49°10' W 123°56'0 0.0
2017-Feb-22 12:23N 49°10' W 123°56'6 7.4
2017-Feb-22 11:32N 49°13' W 123°48'1414.1
2017-Feb-22 10:33N 49°09' W 123°28'1312.8
2017-Feb-22 09:33N 49°06' W 123°08'5 4.6
2017-Feb-22 08:33N 49°09' W 123°02'0 0.0
2017-Feb-22 07:34N 49°09' W 123°02'9 8.8
2017-Feb-22 06:34N 49°07' W 123°15'1111.2
2017-Feb-22 05:33N 48°56' W 123°18'1211.8
2017-Feb-22 04:34N 48°45' W 123°21'4 4.1
2017-Feb-22 03:34N 48°41' W 123°24'0 0.0
2017-Feb-22 02:33N 48°41' W 123°24'1110.9
2017-Feb-22 01:34N 48°52' W 123°20'1413.8
2017-Feb-22 00:34N 49°06' W 123°20'1211.8
2017-Feb-21 23:33N 49°09' W 123°02'0 0.0
2017-Feb-21 22:33N 49°09' W 123°02'5 5.0
2017-Feb-21 21:34N 49°06' W 123°09'1111.2
2017-Feb-21 20:33N 49°08' W 123°26'1212.5
2017-Feb-21 19:33N 49°12' W 123°44'8 7.8
2017-Feb-21 18:32N 49°10' W 123°56'0 0.0
2017-Feb-21 17:29N 49°10' W 123°56'0 0.0
2017-Feb-21 16:30N 49°10' W 123°56'0 0.0
2017-Feb-21 15:30N 49°10' W 123°56'0 0.0
2017-Feb-21 14:33N 49°10' W 123°56'0 0.0
2017-Feb-21 13:31N 49°10' W 123°56'0 0.0
2017-Feb-21 12:28N 49°10' W 123°56'6 6.7
2017-Feb-21 11:33N 49°13' W 123°48'1313.4
2017-Feb-21 10:33N 49°09' W 123°29'1212.3
2017-Feb-21 09:33N 49°07' W 123°10'6 5.6
2017-Feb-21 08:33N 49°09' W 123°02'0 0.0
2017-Feb-21 07:33N 49°09' W 123°02'1010.3
2017-Feb-21 06:33N 49°07' W 123°18'1313.0
2017-Feb-21 05:33N 48°54' W 123°18'1212.1
2017-Feb-21 04:33N 48°42' W 123°24'1 0.9
2017-Feb-21 03:33N 48°41' W 123°24'0 0.0
2017-Feb-21 02:33N 48°41' W 123°24'1010.1
2017-Feb-21 01:33N 48°51' W 123°21'1313.5
2017-Feb-21 00:33N 49°05' W 123°19'1211.8
2017-Feb-20 23:33N 49°09' W 123°02'0 0.0
2017-Feb-20 22:33N 49°09' W 123°02'0 0.0
2017-Feb-20 21:33N 49°09' W 123°02'0 0.0
2017-Feb-20 20:33N 49°09' W 123°02'0 0.0
2017-Feb-20 19:33N 49°09' W 123°02'0 0.0
2017-Feb-20 18:33N 49°09' W 123°02'0 0.0
2017-Feb-20 17:33N 49°09' W 123°02'0 0.0
2017-Feb-20 16:33N 49°09' W 123°02'0 0.0
2017-Feb-20 15:33N 49°09' W 123°02'0 0.0
2017-Feb-20 14:33N 49°09' W 123°02'0 0.0
2017-Feb-20 13:33N 49°09' W 123°02'0 0.0
2017-Feb-20 12:33N 49°09' W 123°02'0 0.0
2017-Feb-20 11:33N 49°09' W 123°02'0 0.0
2017-Feb-20 10:33N 49°09' W 123°02'0 0.0
2017-Feb-20 09:33N 49°09' W 123°02'0 0.0
2017-Feb-20 08:33N 49°09' W 123°02'0 0.0
2017-Feb-20 07:33N 49°09' W 123°02'0 0.0
2017-Feb-20 06:33N 49°09' W 123°02'0 0.0
2017-Feb-20 05:33N 49°09' W 123°02'0 0.0
2017-Feb-20 04:33N 49°09' W 123°02'0 0.0
2017-Feb-20 03:33N 49°09' W 123°02'0 0.0
2017-Feb-20 02:33N 49°09' W 123°02'0 0.0
2017-Feb-20 01:33N 49°09' W 123°02'0 0.0
2017-Feb-20 00:33N 49°09' W 123°02'0 0.0
2017-Feb-19 23:33N 49°09' W 123°02'0 0.0
2017-Feb-19 22:33N 49°09' W 123°02'0 0.0
2017-Feb-19 21:33N 49°09' W 123°02'0 0.0
2017-Feb-19 20:33N 49°09' W 123°02'0 0.0
2017-Feb-19 19:33N 49°09' W 123°02'0 0.0
2017-Feb-19 18:33N 49°09' W 123°02'0 0.0
2017-Feb-19 17:33N 49°09' W 123°02'0 0.0
2017-Feb-19 16:33N 49°09' W 123°02'1 0.8
2017-Feb-19 15:33N 49°08' W 123°03'1010.3
2017-Feb-19 14:33N 49°06' W 123°18'1110.9
2017-Feb-19 13:33N 49°09' W 123°34'1110.8
2017-Feb-19 12:33N 49°13' W 123°50'5 2.2
2017-Feb-19 10:26N 49°10' W 123°56'5 5.7
2017-Feb-19 09:31N 49°13' W 123°50'1111.5
2017-Feb-19 08:33N 49°10' W 123°33'1111.0
2017-Feb-19 07:33N 49°06' W 123°18'1010.2
2017-Feb-19 06:33N 49°09' W 123°02'0 0.2
2017-Feb-19 05:33N 49°09' W 123°02'0 0.0
2017-Feb-19 04:33N 49°09' W 123°02'0 0.0
2017-Feb-19 03:33N 49°09' W 123°02'0 0.0
2017-Feb-19 02:33N 49°09' W 123°02'0 0.0
2017-Feb-19 01:33N 49°09' W 123°02'0 0.0
2017-Feb-19 00:33N 49°09' W 123°02'0 0.0
2017-Feb-18 23:33N 49°09' W 123°02'0 0.0
2017-Feb-18 22:33N 49°09' W 123°02'0 0.0
2017-Feb-18 21:33N 49°09' W 123°02'0 0.0
2017-Feb-18 20:33N 49°09' W 123°02'0 0.0
2017-Feb-18 19:33N 49°09' W 123°02'0 0.0
2017-Feb-18 18:33N 49°09' W 123°02'0 0.0
2017-Feb-18 17:34N 49°09' W 123°02'0 0.0
2017-Feb-18 16:33N 49°09' W 123°02'0 0.0
2017-Feb-18 15:33N 49°09' W 123°02'8 7.8
2017-Feb-18 14:33N 49°08' W 123°14'1212.4
2017-Feb-18 13:33N 48°56' W 123°18'1312.6
2017-Feb-18 12:33N 48°44' W 123°24'2 2.3
2017-Feb-18 11:34N 48°41' W 123°24'0 0.0
2017-Feb-18 10:34N 48°41' W 123°24'1211.9
2017-Feb-18 09:33N 48°53' W 123°18'1514.5
2017-Feb-18 08:34N 49°07' W 123°16'9 9.4
2017-Feb-18 07:33N 49°09' W 123°02'0 0.0
2017-Feb-18 06:33N 49°09' W 123°02'10 9.9
2017-Feb-18 05:33N 49°07' W 123°17'1313.3
2017-Feb-18 04:33N 49°10' W 123°37'1212.3
2017-Feb-18 03:32N 49°10' W 123°56'0 0.1
2017-Feb-18 02:34N 49°10' W 123°56'2 2.1
2017-Feb-18 01:25N 49°12' W 123°53'1112.8
2017-Feb-18 00:33N 49°10' W 123°36'1313.0
2017-Feb-17 23:34N 49°07' W 123°17'1010.1
2017-Feb-17 22:33N 49°09' W 123°02'0 0.0
2017-Feb-17 21:33N 49°09' W 123°02'0 0.0
2017-Feb-17 20:34N 49°09' W 123°02'0 0.0
2017-Feb-17 19:33N 49°09' W 123°02'0 0.0
2017-Feb-17 18:34N 49°09' W 123°02'0 0.0
2017-Feb-17 17:33N 49°09' W 123°02'0 0.0
2017-Feb-17 16:33N 49°09' W 123°02'0 0.0
2017-Feb-17 15:33N 49°09' W 123°02'8 7.9
2017-Feb-17 14:33N 49°08' W 123°14'1312.9
2017-Feb-17 13:33N 48°55' W 123°18'1313.3
2017-Feb-17 12:34N 48°42' W 123°24'1 1.1
2017-Feb-17 11:33N 48°41' W 123°24'0 0.2
2017-Feb-17 10:33N 48°41' W 123°24'1111.1
2017-Feb-17 09:33N 48°52' W 123°19'1414.1
2017-Feb-17 08:33N 49°06' W 123°19'1111.2
2017-Feb-17 07:33N 49°09' W 123°02'0 0.0
2017-Feb-17 06:33N 49°09' W 123°02'10 9.9
2017-Feb-17 05:33N 49°07' W 123°17'1413.9
2017-Feb-17 04:33N 49°10' W 123°38'11 3.7
2017-Feb-17 01:33N 49°10' W 123°54'1211.8
2017-Feb-17 00:32N 49°11' W 123°36'1313.1
2017-Feb-16 23:34N 49°06' W 123°18'1010.4
2017-Feb-16 22:33N 49°09' W 123°02'0 0.0
2017-Feb-16 21:33N 49°09' W 123°02'0 0.0
2017-Feb-16 20:33N 49°09' W 123°02'0 0.0
2017-Feb-16 19:33N 49°09' W 123°02'0 0.0
2017-Feb-16 18:33N 49°09' W 123°02'0 0.0
2017-Feb-16 17:33N 49°09' W 123°02'0 0.0
2017-Feb-16 16:33N 49°09' W 123°02'0 0.0
2017-Feb-16 15:33N 49°09' W 123°02'6 6.0
2017-Feb-16 14:33N 49°07' W 123°11'1111.0
2017-Feb-16 13:33N 48°57' W 123°19'1413.8
2017-Feb-16 12:34N 48°44' W 123°24'3 2.5
2017-Feb-16 11:33N 48°41' W 123°24'1 0.8
2017-Feb-16 10:33N 48°42' W 123°23'1211.9
2017-Feb-16 09:33N 48°53' W 123°18'1313.0
2017-Feb-16 08:34N 49°06' W 123°19'1111.4
2017-Feb-16 07:33N 49°09' W 123°02'0 0.0
2017-Feb-16 06:33N 49°09' W 123°02'9 8.7
2017-Feb-16 05:33N 49°07' W 123°15'1313.1
2017-Feb-16 04:33N 49°10' W 123°35'1212.5
2017-Feb-16 03:34N 49°11' W 123°54'1 1.5
2017-Feb-16 02:33N 49°10' W 123°56'0 0.1
2017-Feb-16 01:33N 49°10' W 123°56'1111.4
2017-Feb-16 00:34N 49°11' W 123°38'1414.1
2017-Feb-15 23:33N 49°06' W 123°18'1110.8
2017-Feb-15 22:33N 49°09' W 123°02'0 0.0
2017-Feb-15 21:33N 49°09' W 123°02'0 0.0
2017-Feb-15 20:33N 49°09' W 123°02'0 0.0
2017-Feb-15 19:33N 49°09' W 123°02'0 0.0
2017-Feb-15 18:34N 49°09' W 123°02'0 0.0
2017-Feb-15 17:33N 49°09' W 123°02'0 0.0
2017-Feb-15 16:33N 49°09' W 123°02'0 0.0
2017-Feb-15 15:34N 49°09' W 123°02'6 5.8
2017-Feb-15 14:33N 49°07' W 123°10'1111.4
2017-Feb-15 13:33N 48°57' W 123°19'1413.8
2017-Feb-15 12:33N 48°43' W 123°24'2 2.0
2017-Feb-15 11:32N 48°41' W 123°24'1 1.0
2017-Feb-15 10:34N 48°42' W 123°23'1212.3
2017-Feb-15 09:34N 48°53' W 123°18'1414.0
2017-Feb-15 08:33N 49°07' W 123°15'9 8.8
2017-Feb-15 07:33N 49°09' W 123°02'0 0.0
2017-Feb-15 06:33N 49°09' W 123°02'1010.4
2017-Feb-15 05:33N 49°06' W 123°18'1414.0
2017-Feb-15 04:33N 49°11' W 123°38'1111.5
2017-Feb-15 03:33N 49°10' W 123°56'0 0.1
2017-Feb-15 02:33N 49°10' W 123°56'1 1.4
2017-Feb-15 01:33N 49°11' W 123°54'1211.8
2017-Feb-15 00:33N 49°11' W 123°36'1313.1
2017-Feb-14 23:34N 49°07' W 123°17'10 9.8
2017-Feb-14 22:33N 49°09' W 123°02'0 0.0
2017-Feb-14 21:33N 49°09' W 123°02'0 0.0
2017-Feb-14 20:33N 49°09' W 123°02'0 0.0
2017-Feb-14 19:33N 49°09' W 123°02'0 0.0
2017-Feb-14 18:33N 49°09' W 123°02'0 0.0
2017-Feb-14 17:33N 49°09' W 123°02'0 0.0
2017-Feb-14 16:33N 49°09' W 123°02'0 0.0
2017-Feb-14 15:33N 49°09' W 123°02'0 0.0
2017-Feb-14 14:33N 49°09' W 123°02'0 0.0
2017-Feb-14 13:33N 49°09' W 123°02'0 0.0
2017-Feb-14 12:33N 49°09' W 123°02'0 0.0
2017-Feb-14 11:33N 49°09' W 123°02'0 0.0
2017-Feb-14 10:33N 49°09' W 123°02'0 0.0
2017-Feb-14 09:33N 49°09' W 123°02'0 0.0
2017-Feb-14 08:33N 49°09' W 123°02'0 0.0
2017-Feb-14 07:34N 49°09' W 123°02'  

Dump ship's entire track history